createdAt,value
2019-01-27T00:00:08.675Z,6.20
2019-01-27T00:02:58.157Z,5.57
2019-01-27T00:05:49.691Z,4.83
2019-01-27T00:08:44.951Z,4.23
2019-01-27T00:11:46.664Z,5.57
2019-01-27T00:15:03.579Z,4.13
2019-01-27T00:17:52.808Z,6.45
2019-01-27T00:20:43.229Z,7.57
2019-01-27T00:23:58.571Z,6.37
2019-01-27T00:26:50.702Z,4.87
2019-01-27T00:29:38.076Z,5.37
2019-01-27T00:32:38.557Z,4.33
2019-01-27T00:35:30.189Z,5.33
2019-01-27T00:38:27.997Z,5.50
2019-01-27T00:41:18.867Z,6.33
2019-01-27T00:47:19.572Z,5.73
2019-01-27T00:53:49.382Z,6.70
2019-01-27T00:56:54.500Z,8.53
2019-01-27T00:59:59.938Z,5.27
2019-01-27T01:03:03.240Z,7.00
2019-01-27T01:06:20.111Z,6.05
2019-01-27T01:09:25.359Z,5.60
2019-01-27T01:15:22.692Z,5.60
2019-01-27T01:18:16.465Z,5.43
2019-01-27T01:21:29.054Z,5.70
2019-01-27T01:24:43.117Z,5.10
2019-01-27T01:27:49.450Z,5.45
2019-01-27T01:31:00.667Z,6.03
2019-01-27T01:33:54.884Z,6.03
2019-01-27T01:36:49.575Z,7.10
2019-01-27T01:40:03.456Z,6.50
2019-01-27T01:42:46.457Z,5.95
2019-01-27T01:45:33.592Z,6.03
2019-01-27T01:48:22.718Z,6.37
2019-01-27T01:51:05.686Z,7.33
2019-01-27T01:53:57.425Z,6.42
2019-01-27T01:56:50.520Z,7.03
2019-01-27T01:59:48.750Z,5.30
2019-01-27T02:02:52.455Z,7.90
2019-01-27T02:05:47.015Z,6.43
2019-01-27T02:08:35.498Z,6.93
2019-01-27T02:11:11.742Z,8.63
2019-01-27T02:14:05.814Z,5.83
2019-01-27T02:17:06.512Z,6.60
2019-01-27T02:19:50.206Z,5.07
2019-01-27T02:22:36.607Z,6.27
2019-01-27T02:25:21.557Z,5.78
2019-01-27T02:28:13.192Z,3.60
2019-01-27T02:31:02.279Z,3.45
2019-01-27T02:34:07.412Z,5.45
2019-01-27T02:36:56.282Z,6.25
2019-01-27T02:39:47.599Z,6.27
2019-01-27T02:42:55.501Z,5.57
2019-01-27T02:45:44.784Z,4.07
2019-01-27T02:48:41.338Z,3.10
2019-01-27T02:51:49.432Z,3.83
2019-01-27T02:54:57.633Z,3.20
2019-01-27T02:57:51.845Z,5.50
2019-01-27T03:01:00.627Z,7.47
2019-01-27T03:04:03.480Z,4.53
2019-01-27T03:07:06.863Z,2.83
2019-01-27T03:10:08.994Z,4.00
2019-01-27T03:13:11.515Z,4.43
2019-01-27T03:19:20.541Z,5.10
2019-01-27T03:25:23.486Z,5.33
2019-01-27T03:28:25.948Z,4.17
2019-01-27T03:31:25.986Z,5.63
2019-01-27T03:34:30.494Z,3.07
2019-01-27T03:37:32.823Z,2.97
2019-01-27T03:40:38.073Z,5.67
2019-01-27T03:43:24.579Z,6.30
2019-01-27T03:46:04.713Z,5.92
2019-01-27T03:48:56.459Z,6.72
2019-01-27T03:51:51.972Z,5.22
2019-01-27T03:54:46.561Z,5.23
2019-01-27T03:57:46.724Z,5.23
2019-01-27T04:00:55.534Z,4.83
2019-01-27T04:04:00.203Z,6.47
2019-01-27T04:07:19.973Z,6.20
2019-01-27T04:10:02.375Z,7.00
2019-01-27T04:12:59.758Z,4.85
2019-01-27T04:15:56.724Z,6.87
2019-01-27T04:18:50.815Z,6.30
2019-01-27T04:21:52.935Z,5.72
2019-01-27T04:24:44.359Z,6.53
2019-01-27T04:27:38.852Z,6.13
2019-01-27T04:30:41.627Z,5.57
2019-01-27T04:33:39.849Z,7.00
2019-01-27T04:39:40.908Z,6.00
2019-01-27T04:42:29.518Z,6.80
2019-01-27T04:45:29.062Z,3.70
2019-01-27T04:48:06.405Z,8.17
2019-01-27T04:51:07.019Z,6.00
2019-01-27T04:54:11.909Z,7.43
2019-01-27T04:57:23.323Z,8.10
2019-01-27T05:00:11.520Z,6.90
2019-01-27T05:03:11.964Z,5.73
2019-01-27T05:06:09.593Z,7.97
2019-01-27T05:08:55.509Z,5.43
2019-01-27T05:12:11.991Z,8.10
2019-01-27T05:15:08.774Z,7.60
2019-01-27T05:17:58.079Z,8.35
2019-01-27T05:21:01.950Z,9.90
2019-01-27T05:23:58.593Z,6.87
2019-01-27T05:26:51.884Z,7.13
2019-01-27T05:29:33.848Z,7.77
2019-01-27T05:32:41.075Z,9.90
2019-01-27T05:42:17.742Z,7.03
2019-01-27T05:45:01.864Z,9.90
2019-01-27T05:47:42.926Z,9.35
2019-01-27T05:50:30.874Z,8.47
2019-01-27T05:53:37.588Z,9.73
2019-01-27T05:56:31.699Z,9.93
2019-01-27T05:59:27.242Z,7.47
2019-01-27T06:02:19.314Z,7.53
2019-01-27T06:05:09.111Z,6.93
2019-01-27T06:08:00.428Z,8.37
2019-01-27T06:11:00.606Z,5.70
2019-01-27T06:13:44.103Z,8.03
2019-01-27T06:16:23.870Z,9.43
2019-01-27T06:19:13.295Z,9.40
2019-01-27T06:21:53.525Z,9.77
2019-01-27T06:24:48.126Z,8.10
2019-01-27T06:27:38.348Z,7.57
2019-01-27T06:30:28.988Z,7.87
2019-01-27T06:33:25.054Z,7.70
2019-01-27T06:36:06.481Z,8.40
2019-01-27T06:38:58.858Z,7.72
2019-01-27T06:42:08.130Z,9.27
2019-01-27T06:45:01.857Z,8.53
2019-01-27T06:47:51.728Z,10.57
2019-01-27T06:50:40.813Z,6.90
2019-01-27T06:53:20.182Z,6.03
2019-01-27T06:55:56.916Z,7.17
2019-01-27T06:58:33.981Z,9.00
2019-01-27T07:01:25.169Z,8.37
2019-01-27T07:04:13.462Z,6.70
2019-01-27T07:07:03.847Z,8.80
2019-01-27T07:10:00.603Z,9.93
2019-01-27T07:12:51.917Z,8.63
2019-01-27T07:15:44.481Z,8.77
2019-01-27T07:18:39.924Z,7.70
2019-01-27T07:21:36.032Z,9.77
2019-01-27T07:24:37.387Z,9.93
2019-01-27T07:27:42.209Z,9.93
2019-01-27T07:30:48.452Z,9.53
2019-01-27T07:33:54.549Z,7.15
2019-01-27T07:36:45.237Z,10.23
2019-01-27T07:39:40.663Z,10.20
2019-01-27T07:42:39.374Z,7.60
2019-01-27T07:45:50.240Z,10.27
2019-01-27T07:49:01.312Z,6.03
2019-01-27T07:51:56.766Z,7.03
2019-01-27T07:54:41.063Z,7.08
2019-01-27T07:57:35.059Z,6.40
2019-01-27T08:00:27.265Z,7.07
2019-01-27T08:03:20.516Z,5.83
2019-01-27T08:06:10.761Z,5.57
2019-01-27T08:09:04.091Z,4.83
2019-01-27T08:11:59.637Z,7.50
2019-01-27T08:14:52.923Z,6.70
2019-01-27T08:17:55.407Z,8.53
2019-01-27T08:20:46.132Z,6.13
2019-01-27T08:23:34.943Z,7.43
2019-01-27T08:26:39.746Z,5.93
2019-01-27T08:29:38.370Z,9.90
2019-01-27T08:32:48.940Z,7.72
2019-01-27T08:35:44.030Z,7.83
2019-01-27T08:38:27.495Z,9.10
2019-01-27T08:41:31.094Z,7.77
2019-01-27T08:44:14.759Z,8.13
2019-01-27T08:47:09.588Z,7.92
2019-01-27T08:49:59.458Z,7.23
2019-01-27T08:52:47.277Z,6.13
2019-01-27T08:55:41.641Z,7.63
2019-01-27T08:58:14.059Z,4.87
2019-01-27T09:00:50.082Z,8.23
2019-01-27T09:03:39.609Z,5.93
2019-01-27T09:06:13.151Z,5.90
2019-01-27T09:09:01.762Z,6.97
2019-01-27T09:11:59.122Z,10.13
2019-01-27T09:14:47.727Z,6.85
2019-01-27T09:17:42.616Z,9.20
2019-01-27T09:20:30.634Z,8.13
2019-01-27T09:23:21.215Z,5.90
2019-01-27T09:26:09.691Z,5.77
2019-01-27T09:29:09.154Z,6.73
2019-01-27T09:32:04.651Z,6.55
2019-01-27T09:35:23.473Z,5.30
2019-01-27T09:38:27.210Z,6.83
2019-01-27T09:44:20.599Z,6.00
2019-01-27T09:47:26.964Z,7.83
2019-01-27T09:50:22.427Z,4.23
2019-01-27T09:53:24.776Z,8.33
2019-01-27T09:56:23.648Z,6.00
2019-01-27T09:59:43.251Z,6.83
2019-01-27T10:02:56.706Z,5.67
2019-01-27T10:06:01.867Z,5.33
2019-01-27T10:09:03.016Z,7.17
2019-01-27T10:12:10.600Z,7.37
2019-01-27T10:15:01.636Z,6.65
2019-01-27T10:17:46.449Z,5.28
2019-01-27T10:20:51.504Z,4.03
2019-01-27T10:23:34.352Z,5.97
2019-01-27T10:26:30.479Z,7.57
2019-01-27T10:29:25.558Z,12.10
2019-01-27T10:32:34.259Z,8.00
2019-01-27T10:35:16.295Z,9.13
2019-01-27T10:38:23.891Z,8.03
2019-01-27T10:41:28.915Z,10.13
2019-01-27T10:44:35.688Z,12.53
2019-01-27T10:47:37.125Z,8.57
2019-01-27T10:50:29.057Z,4.23
2019-01-27T10:53:37.167Z,11.20
2019-01-27T10:56:55.462Z,6.90
2019-01-27T10:59:48.515Z,14.50
2019-01-27T11:03:02.043Z,5.17
2019-01-27T11:06:07.123Z,7.55
2019-01-27T11:09:23.947Z,10.73
2019-01-27T11:12:30.845Z,6.30
2019-01-27T11:15:34.019Z,6.10
2019-01-27T11:18:42.563Z,8.93
2019-01-27T11:21:46.475Z,6.57
2019-01-27T11:25:04.230Z,8.70
2019-01-27T11:28:04.539Z,8.73
2019-01-27T11:30:46.190Z,6.50
2019-01-27T11:33:23.303Z,11.70
2019-01-27T11:36:01.648Z,7.23
2019-01-27T11:38:41.390Z,10.10
2019-01-27T11:41:38.556Z,6.97
2019-01-27T11:44:19.799Z,9.93
2019-01-27T11:47:22.899Z,8.73
2019-01-27T11:50:26.171Z,8.70
2019-01-27T11:53:03.841Z,9.13
2019-01-27T11:56:09.364Z,9.63
2019-01-27T11:58:54.064Z,8.43
2019-01-27T12:01:27.611Z,5.83
2019-01-27T12:04:25.068Z,9.30
2019-01-27T12:07:32.527Z,5.13
2019-01-27T12:10:35.635Z,5.87
2019-01-27T12:13:42.084Z,6.07
2019-01-27T12:16:41.619Z,12.43
2019-01-27T12:20:03.999Z,6.53
2019-01-27T12:23:13.036Z,13.03
2019-01-27T12:26:24.052Z,3.77
2019-01-27T12:29:03.869Z,9.90
2019-01-27T12:32:04.589Z,8.08
2019-01-27T12:38:29.213Z,6.90
2019-01-27T12:41:32.461Z,5.10
2019-01-27T12:44:33.526Z,7.03
2019-01-27T12:47:17.457Z,5.77
2019-01-27T12:50:26.257Z,8.73
2019-01-27T12:53:11.675Z,4.67
2019-01-27T12:55:51.266Z,5.43
2019-01-27T12:58:37.042Z,5.50
2019-01-27T13:01:11.749Z,5.75
2019-01-27T13:03:51.656Z,9.17
2019-01-27T13:06:24.460Z,5.33
2019-01-27T13:09:08.548Z,4.67
2019-01-27T13:11:42.052Z,6.57
2019-01-27T13:14:23.305Z,6.17
2019-01-27T13:17:01.899Z,5.47
2019-01-27T13:19:38.213Z,5.73
2019-01-27T13:22:30.317Z,6.70
2019-01-27T13:25:12.163Z,5.33
2019-01-27T13:28:00.295Z,6.00
2019-01-27T13:30:39.676Z,7.80
2019-01-27T13:33:22.118Z,8.17
2019-01-27T13:36:03.404Z,4.93
2019-01-27T13:38:41.300Z,4.15
2019-01-27T13:41:20.087Z,6.60
2019-01-27T13:44:04.891Z,7.60
2019-01-27T13:47:04.297Z,5.67
2019-01-27T13:50:07.106Z,3.70
2019-01-27T13:52:54.734Z,3.67
2019-01-27T13:55:47.794Z,1.60
2019-01-27T13:58:41.998Z,2.70
2019-01-27T14:04:48.415Z,7.73
2019-01-27T14:07:53.854Z,2.83
2019-01-27T14:14:23.800Z,8.03
2019-01-27T14:17:46.625Z,6.30
2019-01-27T14:20:52.863Z,5.80
2019-01-27T14:23:51.152Z,5.37
2019-01-27T14:26:40.797Z,3.35
2019-01-27T14:29:36.398Z,2.47
2019-01-27T14:36:03.836Z,2.30
2019-01-27T14:39:03.189Z,5.72
2019-01-27T14:42:03.322Z,6.33
2019-01-27T14:45:02.921Z,5.60
2019-01-27T14:48:05.199Z,3.98
2019-01-27T14:50:54.629Z,2.90
2019-01-27T15:00:38.152Z,3.87
2019-01-27T15:03:52.666Z,2.63
2019-01-27T15:07:00.814Z,5.77
2019-01-27T15:09:49.458Z,6.67
2019-01-27T15:12:37.287Z,6.57
2019-01-27T15:18:45.096Z,6.45
2019-01-27T15:21:41.140Z,5.40
2019-01-27T15:24:41.972Z,4.97
2019-01-27T15:27:42.826Z,3.67
2019-01-27T15:30:37.957Z,9.23
2019-01-27T15:33:10.055Z,9.07
2019-01-27T15:35:40.031Z,8.70
2019-01-27T15:38:18.242Z,4.57
2019-01-27T15:40:55.570Z,11.67
2019-01-27T15:43:36.139Z,13.87
2019-01-27T15:46:14.424Z,6.60
2019-01-27T15:48:44.588Z,7.33
2019-01-27T15:51:20.157Z,7.90
2019-01-27T15:53:58.652Z,9.65
2019-01-27T15:56:51.642Z,7.70
2019-01-27T15:59:38.131Z,8.63
2019-01-27T16:02:25.336Z,10.80
2019-01-27T16:05:18.012Z,15.37
2019-01-27T16:08:24.079Z,8.67
2019-01-27T16:11:22.050Z,16.00
2019-01-27T16:14:15.900Z,14.43
2019-01-27T16:17:06.926Z,18.07
2019-01-27T16:19:55.676Z,11.60
2019-01-27T16:23:09.295Z,17.27
2019-01-27T16:25:45.596Z,15.57
2019-01-27T16:31:40.558Z,7.57
2019-01-27T16:34:26.899Z,9.57
2019-01-27T16:37:14.447Z,11.03
2019-01-27T16:40:13.031Z,19.90
2019-01-27T16:42:46.207Z,17.47
2019-01-27T16:45:24.286Z,21.93
2019-01-27T16:48:12.753Z,11.63
2019-01-27T16:50:46.162Z,15.67
2019-01-27T16:53:24.785Z,13.33
2019-01-27T16:56:06.710Z,12.20
2019-01-27T16:59:09.699Z,15.63
2019-01-27T17:02:03.486Z,9.13
2019-01-27T17:05:17.673Z,13.90
2019-01-27T17:08:01.323Z,16.43
2019-01-27T17:11:02.001Z,18.93
2019-01-27T17:14:10.392Z,17.13
2019-01-27T17:17:17.370Z,16.20
2019-01-27T17:20:32.885Z,15.77
2019-01-27T17:23:50.809Z,20.83
2019-01-27T17:27:11.789Z,28.37
2019-01-27T17:30:06.517Z,19.83
2019-01-27T17:33:02.876Z,22.83
2019-01-27T17:35:59.562Z,16.47
2019-01-27T17:38:51.537Z,17.62
2019-01-27T17:41:26.108Z,17.62
2019-01-27T17:44:15.585Z,18.97
2019-01-27T17:47:12.774Z,19.10
2019-01-27T17:50:05.671Z,16.35
2019-01-27T17:53:08.997Z,10.80
2019-01-27T17:55:47.205Z,8.77
2019-01-27T17:58:30.706Z,13.27
2019-01-27T18:01:28.796Z,17.23
2019-01-27T18:04:22.265Z,6.03
2019-01-27T18:07:18.491Z,7.73
2019-01-27T18:10:15.724Z,6.40
2019-01-27T18:12:55.820Z,9.17
2019-01-27T18:15:38.324Z,14.67
2019-01-27T18:18:14.339Z,9.68
2019-01-27T18:20:55.873Z,16.90
2019-01-27T18:23:34.122Z,6.75
2019-01-27T18:26:20.537Z,7.93
2019-01-27T18:29:01.499Z,9.00
2019-01-27T18:31:36.179Z,7.10
2019-01-27T18:34:12.187Z,7.00
2019-01-27T18:36:50.932Z,8.93
2019-01-27T18:39:48.882Z,8.10
2019-01-27T18:42:31.914Z,6.23
2019-01-27T18:45:13.941Z,6.97
2019-01-27T18:47:54.770Z,5.28
2019-01-27T18:50:35.291Z,5.15
2019-01-27T18:53:22.239Z,9.13
2019-01-27T18:56:00.231Z,10.00
2019-01-27T18:59:01.154Z,10.13
2019-01-27T19:01:53.545Z,7.77
2019-01-27T19:04:50.530Z,9.30
2019-01-27T19:07:53.775Z,9.50
2019-01-27T19:10:29.673Z,4.17
2019-01-27T19:13:10.690Z,9.17
2019-01-27T19:15:55.736Z,7.47
2019-01-27T19:18:32.553Z,9.25
2019-01-27T19:21:16.064Z,7.83
2019-01-27T19:24:09.826Z,7.93
2019-01-27T19:27:01.494Z,11.30
2019-01-27T19:29:50.785Z,6.90
2019-01-27T19:32:54.802Z,7.90
2019-01-27T19:36:07.895Z,12.03
2019-01-27T19:39:07.292Z,7.33
2019-01-27T19:42:18.001Z,6.87
2019-01-27T19:45:12.273Z,9.87
2019-01-27T19:47:57.324Z,6.50
2019-01-27T19:50:44.486Z,9.10
2019-01-27T19:53:40.261Z,6.13
2019-01-27T19:56:25.612Z,5.03
2019-01-27T19:59:13.234Z,7.93
2019-01-27T20:02:08.053Z,5.97
2019-01-27T20:05:07.925Z,8.58
2019-01-27T20:07:51.718Z,4.97
2019-01-27T20:10:48.058Z,10.73
2019-01-27T20:17:34.139Z,10.00
2019-01-27T20:20:39.763Z,14.03
2019-01-27T20:23:28.082Z,5.20
2019-01-27T20:26:23.047Z,8.88
2019-01-27T20:29:18.449Z,5.10
2019-01-27T20:32:26.538Z,4.57
2019-01-27T20:35:18.838Z,11.22
2019-01-27T20:37:55.798Z,6.47
2019-01-27T20:40:44.463Z,9.47
2019-01-27T20:43:37.620Z,5.90
2019-01-27T20:46:11.123Z,9.40
2019-01-27T20:48:56.181Z,10.30
2019-01-27T20:51:59.743Z,13.83
2019-01-27T20:54:55.698Z,9.47
2019-01-27T20:57:51.823Z,10.95
2019-01-27T21:00:38.551Z,12.18
2019-01-27T21:03:26.096Z,9.03
2019-01-27T21:06:06.522Z,11.37
2019-01-27T21:09:00.221Z,11.83
2019-01-27T21:12:04.304Z,9.60
2019-01-27T21:14:51.088Z,8.55
2019-01-27T21:18:05.393Z,7.87
2019-01-27T21:20:43.779Z,13.13
2019-01-27T21:23:17.894Z,10.83
2019-01-27T21:25:57.866Z,10.10
2019-01-27T21:28:33.846Z,9.18
2019-01-27T21:31:11.329Z,7.37
2019-01-27T21:33:47.692Z,14.53
2019-01-27T21:36:33.143Z,7.90
2019-01-27T21:39:13.051Z,11.97
2019-01-27T21:42:04.268Z,9.33
2019-01-27T21:44:40.198Z,6.10
2019-01-27T21:47:36.413Z,7.10
2019-01-27T21:50:39.794Z,12.13
2019-01-27T21:53:36.723Z,7.30
2019-01-27T21:56:51.872Z,11.33
2019-01-27T21:59:35.192Z,8.90
2019-01-27T22:02:23.716Z,10.07
2019-01-27T22:05:07.833Z,10.33
2019-01-27T22:07:53.067Z,7.77
2019-01-27T22:10:46.204Z,3.87
2019-01-27T22:13:22.605Z,4.30
2019-01-27T22:19:29.931Z,20.60
2019-01-27T22:22:18.608Z,9.50
2019-01-27T22:24:54.241Z,11.60
2019-01-27T22:27:42.333Z,12.45
2019-01-27T22:30:38.688Z,12.87
2019-01-27T22:33:35.551Z,10.03
2019-01-27T22:36:30.774Z,9.03
2019-01-27T22:39:15.098Z,9.07
2019-01-27T22:41:58.969Z,14.93
2019-01-27T22:45:06.946Z,13.30
2019-01-27T22:48:00.003Z,9.70
2019-01-27T22:50:34.965Z,10.77
2019-01-27T22:53:09.463Z,11.87
2019-01-27T22:55:57.500Z,12.60
2019-01-27T22:58:29.434Z,16.07
2019-01-27T23:01:14.414Z,11.20
2019-01-27T23:04:20.507Z,15.47
2019-01-27T23:07:10.479Z,8.37
2019-01-27T23:09:46.870Z,12.30
2019-01-27T23:12:34.271Z,16.57
2019-01-27T23:15:11.086Z,12.78
2019-01-27T23:21:06.654Z,12.87
2019-01-27T23:24:10.387Z,14.73
2019-01-27T23:30:08.970Z,16.00
2019-01-27T23:32:53.335Z,14.30
2019-01-27T23:36:00.446Z,13.20
2019-01-27T23:39:13.955Z,15.13
2019-01-27T23:42:14.034Z,17.53
2019-01-27T23:45:22.896Z,18.07
2019-01-27T23:48:11.842Z,11.00
2019-01-27T23:51:06.340Z,11.10
2019-01-27T23:53:47.579Z,14.03
2019-01-27T23:56:24.632Z,11.90
2019-01-27T23:59:01.845Z,10.87
